sensor_id;sensor_type;location;lat;lon;timestamp;P1;durP1;ratioP1;P2;durP2;ratioP2
16928;SDS011;8581;47.334;11.190;2022-08-19T00:01:52;6.03;;;4.00;;
16928;SDS011;8581;47.334;11.190;2022-08-19T00:04:24;4.43;;;4.03;;
16928;SDS011;8581;47.334;11.190;2022-08-19T00:06:54;4.40;;;4.00;;
16928;SDS011;8581;47.334;11.190;2022-08-19T00:09:26;5.37;;;4.87;;
16928;SDS011;8581;47.334;11.190;2022-08-19T00:11:58;6.43;;;4.17;;
16928;SDS011;8581;47.334;11.190;2022-08-19T00:14:29;3.90;;;3.60;;
16928;SDS011;8581;47.334;11.190;2022-08-19T00:17:01;5.07;;;3.63;;
16928;SDS011;8581;47.334;11.190;2022-08-19T00:19:32;3.93;;;3.53;;
16928;SDS011;8581;47.334;11.190;2022-08-19T00:22:04;4.80;;;3.60;;
16928;SDS011;8581;47.334;11.190;2022-08-19T00:24:36;4.33;;;3.67;;
16928;SDS011;8581;47.334;11.190;2022-08-19T00:27:07;5.63;;;3.80;;
16928;SDS011;8581;47.334;11.190;2022-08-19T00:29:39;4.13;;;3.80;;
16928;SDS011;8581;47.334;11.190;2022-08-19T00:32:10;4.70;;;4.00;;
16928;SDS011;8581;47.334;11.190;2022-08-19T00:34:42;4.63;;;4.13;;
16928;SDS011;8581;47.334;11.190;2022-08-19T00:37:14;8.83;;;4.07;;
16928;SDS011;8581;47.334;11.190;2022-08-19T00:39:45;4.97;;;4.17;;
16928;SDS011;8581;47.334;11.190;2022-08-19T00:42:19;4.53;;;4.13;;
16928;SDS011;8581;47.334;11.190;2022-08-19T00:44:49;4.63;;;4.23;;
16928;SDS011;8581;47.334;11.190;2022-08-19T00:47:20;5.27;;;4.23;;
16928;SDS011;8581;47.334;11.190;2022-08-19T00:49:53;7.30;;;4.70;;
16928;SDS011;8581;47.334;11.190;2022-08-19T00:52:26;4.53;;;4.20;;
16928;SDS011;8581;47.334;11.190;2022-08-19T00:54:57;5.13;;;4.33;;
16928;SDS011;8581;47.334;11.190;2022-08-19T00:57:32;4.50;;;4.10;;
16928;SDS011;8581;47.334;11.190;2022-08-19T01:00:04;5.80;;;4.43;;
16928;SDS011;8581;47.334;11.190;2022-08-19T01:02:34;5.80;;;4.33;;
16928;SDS011;8581;47.334;11.190;2022-08-19T01:05:06;4.37;;;3.97;;
16928;SDS011;8581;47.334;11.190;2022-08-19T01:07:38;4.40;;;4.10;;
16928;SDS011;8581;47.334;11.190;2022-08-19T01:10:11;5.13;;;4.20;;
16928;SDS011;8581;47.334;11.190;2022-08-19T01:12:41;4.40;;;3.87;;
16928;SDS011;8581;47.334;11.190;2022-08-19T01:15:14;4.67;;;4.10;;
16928;SDS011;8581;47.334;11.190;2022-08-19T01:17:44;4.87;;;4.10;;
16928;SDS011;8581;47.334;11.190;2022-08-19T01:20:18;4.80;;;4.23;;
16928;SDS011;8581;47.334;11.190;2022-08-19T01:22:48;4.93;;;4.53;;
16928;SDS011;8581;47.334;11.190;2022-08-19T01:25:20;5.20;;;4.70;;
16928;SDS011;8581;47.334;11.190;2022-08-19T01:27:51;4.93;;;4.43;;
16928;SDS011;8581;47.334;11.190;2022-08-19T01:30:24;5.40;;;4.70;;
16928;SDS011;8581;47.334;11.190;2022-08-19T01:32:54;5.33;;;4.93;;
16928;SDS011;8581;47.334;11.190;2022-08-19T01:35:26;6.97;;;5.20;;
16928;SDS011;8581;47.334;11.190;2022-08-19T01:38:00;6.43;;;4.90;;
16928;SDS011;8581;47.334;11.190;2022-08-19T01:40:30;6.53;;;5.43;;
16928;SDS011;8581;47.334;11.190;2022-08-19T01:43:02;5.77;;;5.23;;
16928;SDS011;8581;47.334;11.190;2022-08-19T01:45:33;4.70;;;4.30;;
16928;SDS011;8581;47.334;11.190;2022-08-19T01:48:05;4.70;;;4.40;;
16928;SDS011;8581;47.334;11.190;2022-08-19T01:50:36;5.17;;;4.37;;
16928;SDS011;8581;47.334;11.190;2022-08-19T01:53:09;4.90;;;4.50;;
16928;SDS011;8581;47.334;11.190;2022-08-19T01:55:40;5.20;;;4.30;;
16928;SDS011;8581;47.334;11.190;2022-08-19T01:58:14;4.30;;;4.00;;
16928;SDS011;8581;47.334;11.190;2022-08-19T02:00:44;4.60;;;4.30;;
16928;SDS011;8581;47.334;11.190;2022-08-19T02:03:15;4.87;;;4.40;;
16928;SDS011;8581;47.334;11.190;2022-08-19T02:05:47;4.63;;;4.30;;
16928;SDS011;8581;47.334;11.190;2022-08-19T02:08:18;4.40;;;3.90;;
16928;SDS011;8581;47.334;11.190;2022-08-19T02:10:50;5.10;;;4.60;;
16928;SDS011;8581;47.334;11.190;2022-08-19T02:13:22;4.43;;;4.03;;
16928;SDS011;8581;47.334;11.190;2022-08-19T02:15:53;4.20;;;3.80;;
16928;SDS011;8581;47.334;11.190;2022-08-19T02:18:25;4.23;;;3.87;;
16928;SDS011;8581;47.334;11.190;2022-08-19T02:20:56;4.23;;;3.93;;
16928;SDS011;8581;47.334;11.190;2022-08-19T02:23:28;5.00;;;4.53;;
16928;SDS011;8581;47.334;11.190;2022-08-19T02:26:00;4.60;;;4.30;;
16928;SDS011;8581;47.334;11.190;2022-08-19T02:28:31;5.77;;;4.37;;
16928;SDS011;8581;47.334;11.190;2022-08-19T02:31:03;4.47;;;4.07;;
16928;SDS011;8581;47.334;11.190;2022-08-19T02:33:35;4.70;;;4.40;;
16928;SDS011;8581;47.334;11.190;2022-08-19T02:36:07;5.00;;;4.60;;
16928;SDS011;8581;47.334;11.190;2022-08-19T02:38:39;4.87;;;4.43;;
16928;SDS011;8581;47.334;11.190;2022-08-19T02:41:12;5.20;;;4.67;;
16928;SDS011;8581;47.334;11.190;2022-08-19T02:43:42;5.07;;;4.43;;
16928;SDS011;8581;47.334;11.190;2022-08-19T02:46:16;5.23;;;4.73;;
16928;SDS011;8581;47.334;11.190;2022-08-19T02:48:48;5.07;;;4.60;;
16928;SDS011;8581;47.334;11.190;2022-08-19T02:51:21;6.47;;;5.23;;
16928;SDS011;8581;47.334;11.190;2022-08-19T02:53:51;5.77;;;5.33;;
16928;SDS011;8581;47.334;11.190;2022-08-19T02:56:23;5.50;;;5.00;;
16928;SDS011;8581;47.334;11.190;2022-08-19T02:58:55;6.00;;;5.40;;
16928;SDS011;8581;47.334;11.190;2022-08-19T03:01:28;5.87;;;5.37;;
16928;SDS011;8581;47.334;11.190;2022-08-19T03:04:00;6.90;;;5.50;;
16928;SDS011;8581;47.334;11.190;2022-08-19T03:06:31;5.77;;;5.20;;
16928;SDS011;8581;47.334;11.190;2022-08-19T03:09:02;6.57;;;6.00;;
16928;SDS011;8581;47.334;11.190;2022-08-19T03:11:34;6.47;;;5.90;;
16928;SDS011;8581;47.334;11.190;2022-08-19T03:14:07;6.20;;;5.70;;
16928;SDS011;8581;47.334;11.190;2022-08-19T03:16:42;6.50;;;5.90;;
16928;SDS011;8581;47.334;11.190;2022-08-19T03:19:13;6.97;;;5.43;;
16928;SDS011;8581;47.334;11.190;2022-08-19T03:21:44;6.67;;;6.07;;
16928;SDS011;8581;47.334;11.190;2022-08-19T03:24:16;5.83;;;5.33;;
16928;SDS011;8581;47.334;11.190;2022-08-19T03:26:48;6.30;;;5.80;;
16928;SDS011;8581;47.334;11.190;2022-08-19T03:29:19;6.00;;;5.60;;
16928;SDS011;8581;47.334;11.190;2022-08-19T03:31:50;6.60;;;6.10;;
16928;SDS011;8581;47.334;11.190;2022-08-19T03:34:24;6.03;;;5.63;;
16928;SDS011;8581;47.334;11.190;2022-08-19T03:36:55;6.53;;;6.03;;
16928;SDS011;8581;47.334;11.190;2022-08-19T03:39:26;7.80;;;6.00;;
16928;SDS011;8581;47.334;11.190;2022-08-19T03:41:58;6.13;;;5.57;;
16928;SDS011;8581;47.334;11.190;2022-08-19T03:44:30;6.20;;;5.57;;
16928;SDS011;8581;47.334;11.190;2022-08-19T03:47:01;6.60;;;5.63;;
16928;SDS011;8581;47.334;11.190;2022-08-19T03:49:33;5.83;;;5.30;;
16928;SDS011;8581;47.334;11.190;2022-08-19T03:52:04;5.93;;;5.43;;
16928;SDS011;8581;47.334;11.190;2022-08-19T03:54:36;5.97;;;5.47;;
16928;SDS011;8581;47.334;11.190;2022-08-19T03:57:08;6.13;;;5.47;;
16928;SDS011;8581;47.334;11.190;2022-08-19T03:59:39;6.03;;;5.53;;
16928;SDS011;8581;47.334;11.190;2022-08-19T04:02:11;5.50;;;5.00;;
16928;SDS011;8581;47.334;11.190;2022-08-19T04:04:43;5.13;;;4.73;;
16928;SDS011;8581;47.334;11.190;2022-08-19T04:07:14;4.50;;;4.10;;
16928;SDS011;8581;47.334;11.190;2022-08-19T04:09:47;4.00;;;3.70;;
16928;SDS011;8581;47.334;11.190;2022-08-19T04:12:18;4.20;;;3.63;;
16928;SDS011;8581;47.334;11.190;2022-08-19T04:14:50;3.80;;;3.50;;
16928;SDS011;8581;47.334;11.190;2022-08-19T04:17:21;3.93;;;3.40;;
16928;SDS011;8581;47.334;11.190;2022-08-19T04:19:53;4.00;;;3.60;;
16928;SDS011;8581;47.334;11.190;2022-08-19T04:22:24;3.97;;;3.53;;
16928;SDS011;8581;47.334;11.190;2022-08-19T04:24:56;4.47;;;3.60;;
16928;SDS011;8581;47.334;11.190;2022-08-19T04:27:28;4.00;;;3.63;;
16928;SDS011;8581;47.334;11.190;2022-08-19T04:29:59;5.57;;;3.10;;
16928;SDS011;8581;47.334;11.190;2022-08-19T04:32:31;3.00;;;2.80;;
16928;SDS011;8581;47.334;11.190;2022-08-19T04:35:03;4.80;;;3.30;;
16928;SDS011;8581;47.334;11.190;2022-08-19T04:37:35;3.62;;;3.25;;
16928;SDS011;8581;47.334;11.190;2022-08-19T04:40:07;6.60;;;3.07;;
16928;SDS011;8581;47.334;11.190;2022-08-19T04:42:45;3.27;;;2.97;;
16928;SDS011;8581;47.334;11.190;2022-08-19T04:45:16;4.10;;;3.20;;
16928;SDS011;8581;47.334;11.190;2022-08-19T04:47:48;3.47;;;3.10;;
16928;SDS011;8581;47.334;11.190;2022-08-19T04:50:20;5.03;;;3.43;;
16928;SDS011;8581;47.334;11.190;2022-08-19T04:52:51;3.13;;;2.93;;
16928;SDS011;8581;47.334;11.190;2022-08-19T04:55:23;3.77;;;3.07;;
16928;SDS011;8581;47.334;11.190;2022-08-19T04:57:54;3.67;;;3.33;;
16928;SDS011;8581;47.334;11.190;2022-08-19T05:00:26;3.73;;;2.90;;
16928;SDS011;8581;47.334;11.190;2022-08-19T05:02:58;3.17;;;2.80;;
16928;SDS011;8581;47.334;11.190;2022-08-19T05:05:29;4.03;;;3.00;;
16928;SDS011;8581;47.334;11.190;2022-08-19T05:08:01;3.43;;;3.13;;
16928;SDS011;8581;47.334;11.190;2022-08-19T05:10:35;4.43;;;2.93;;
16928;SDS011;8581;47.334;11.190;2022-08-19T05:13:06;4.37;;;3.30;;
16928;SDS011;8581;47.334;11.190;2022-08-19T05:15:38;4.00;;;3.33;;
16928;SDS011;8581;47.334;11.190;2022-08-19T05:18:09;3.50;;;3.20;;
16928;SDS011;8581;47.334;11.190;2022-08-19T05:20:46;3.20;;;2.90;;
16928;SDS011;8581;47.334;11.190;2022-08-19T05:23:24;3.40;;;3.10;;
16928;SDS011;8581;47.334;11.190;2022-08-19T05:25:55;3.77;;;3.10;;
16928;SDS011;8581;47.334;11.190;2022-08-19T05:28:27;4.73;;;3.30;;
16928;SDS011;8581;47.334;11.190;2022-08-19T05:30:59;3.37;;;3.07;;
16928;SDS011;8581;47.334;11.190;2022-08-19T05:33:30;3.20;;;2.90;;
16928;SDS011;8581;47.334;11.190;2022-08-19T05:36:02;5.23;;;3.03;;
16928;SDS011;8581;47.334;11.190;2022-08-19T05:38:34;4.47;;;2.80;;
16928;SDS011;8581;47.334;11.190;2022-08-19T05:41:08;3.20;;;2.87;;
16928;SDS011;8581;47.334;11.190;2022-08-19T05:43:39;3.47;;;2.93;;
16928;SDS011;8581;47.334;11.190;2022-08-19T05:46:18;3.50;;;3.23;;
16928;SDS011;8581;47.334;11.190;2022-08-19T05:48:48;3.47;;;3.17;;
16928;SDS011;8581;47.334;11.190;2022-08-19T05:51:20;4.40;;;3.03;;
16928;SDS011;8581;47.334;11.190;2022-08-19T05:53:51;3.17;;;2.70;;
16928;SDS011;8581;47.334;11.190;2022-08-19T05:56:23;2.80;;;2.60;;
16928;SDS011;8581;47.334;11.190;2022-08-19T05:58:55;2.93;;;2.63;;
16928;SDS011;8581;47.334;11.190;2022-08-19T06:01:26;3.83;;;3.10;;
16928;SDS011;8581;47.334;11.190;2022-08-19T06:03:58;2.87;;;2.67;;
16928;SDS011;8581;47.334;11.190;2022-08-19T06:06:30;2.70;;;2.30;;
16928;SDS011;8581;47.334;11.190;2022-08-19T06:09:02;2.67;;;2.47;;
16928;SDS011;8581;47.334;11.190;2022-08-19T06:11:34;2.53;;;2.33;;
16928;SDS011;8581;47.334;11.190;2022-08-19T06:14:13;2.43;;;2.23;;
16928;SDS011;8581;47.334;11.190;2022-08-19T06:16:42;2.00;;;1.90;;
16928;SDS011;8581;47.334;11.190;2022-08-19T06:19:14;2.17;;;2.07;;
16928;SDS011;8581;47.334;11.190;2022-08-19T06:21:46;2.77;;;2.47;;
16928;SDS011;8581;47.334;11.190;2022-08-19T06:24:22;2.57;;;2.37;;
16928;SDS011;8581;47.334;11.190;2022-08-19T06:26:54;3.00;;;2.70;;
16928;SDS011;8581;47.334;11.190;2022-08-19T06:29:26;2.73;;;2.43;;
16928;SDS011;8581;47.334;11.190;2022-08-19T06:32:00;2.20;;;2.00;;
16928;SDS011;8581;47.334;11.190;2022-08-19T06:34:33;3.03;;;2.60;;
16928;SDS011;8581;47.334;11.190;2022-08-19T06:37:03;3.07;;;2.40;;
16928;SDS011;8581;47.334;11.190;2022-08-19T06:39:37;3.90;;;2.50;;
16928;SDS011;8581;47.334;11.190;2022-08-19T06:42:08;3.33;;;2.70;;
16928;SDS011;8581;47.334;11.190;2022-08-19T06:44:44;3.70;;;2.40;;
16928;SDS011;8581;47.334;11.190;2022-08-19T06:47:18;3.23;;;2.57;;
16928;SDS011;8581;47.334;11.190;2022-08-19T06:49:48;3.03;;;2.70;;
16928;SDS011;8581;47.334;11.190;2022-08-19T06:52:20;4.08;;;2.27;;
16928;SDS011;8581;47.334;11.190;2022-08-19T06:54:51;4.97;;;2.57;;
16928;SDS011;8581;47.334;11.190;2022-08-19T06:57:23;4.27;;;2.70;;
16928;SDS011;8581;47.334;11.190;2022-08-19T06:59:55;3.87;;;2.40;;
16928;SDS011;8581;47.334;11.190;2022-08-19T07:02:26;2.70;;;2.50;;
16928;SDS011;8581;47.334;11.190;2022-08-19T07:04:58;4.57;;;2.83;;
16928;SDS011;8581;47.334;11.190;2022-08-19T07:07:30;3.90;;;2.70;;
16928;SDS011;8581;47.334;11.190;2022-08-19T07:10:02;3.17;;;2.73;;
16928;SDS011;8581;47.334;11.190;2022-08-19T07:12:33;3.50;;;3.10;;
16928;SDS011;8581;47.334;11.190;2022-08-19T07:15:05;3.67;;;2.87;;
16928;SDS011;8581;47.334;11.190;2022-08-19T07:17:37;3.73;;;2.77;;
16928;SDS011;8581;47.334;11.190;2022-08-19T07:20:09;3.40;;;2.70;;
16928;SDS011;8581;47.334;11.190;2022-08-19T07:22:41;2.70;;;2.50;;
16928;SDS011;8581;47.334;11.190;2022-08-19T07:25:14;3.03;;;2.50;;
16928;SDS011;8581;47.334;11.190;2022-08-19T07:27:48;3.83;;;2.37;;
16928;SDS011;8581;47.334;11.190;2022-08-19T07:30:19;2.63;;;2.43;;
16928;SDS011;8581;47.334;11.190;2022-08-19T07:32:51;2.70;;;2.50;;
16928;SDS011;8581;47.334;11.190;2022-08-19T07:35:23;2.83;;;2.17;;
16928;SDS011;8581;47.334;11.190;2022-08-19T07:37:54;2.40;;;2.30;;
16928;SDS011;8581;47.334;11.190;2022-08-19T07:40:26;3.20;;;2.23;;
16928;SDS011;8581;47.334;11.190;2022-08-19T07:42:58;2.60;;;2.17;;
16928;SDS011;8581;47.334;11.190;2022-08-19T07:45:29;3.40;;;2.00;;
16928;SDS011;8581;47.334;11.190;2022-08-19T07:48:01;2.13;;;1.93;;
16928;SDS011;8581;47.334;11.190;2022-08-19T07:50:33;3.73;;;2.10;;
16928;SDS011;8581;47.334;11.190;2022-08-19T07:53:04;2.00;;;1.87;;
16928;SDS011;8581;47.334;11.190;2022-08-19T07:55:36;2.10;;;1.90;;
16928;SDS011;8581;47.334;11.190;2022-08-19T07:58:08;2.23;;;2.03;;
16928;SDS011;8581;47.334;11.190;2022-08-19T08:00:39;2.63;;;2.00;;
16928;SDS011;8581;47.334;11.190;2022-08-19T08:03:11;2.20;;;2.10;;
16928;SDS011;8581;47.334;11.190;2022-08-19T08:05:45;1.90;;;1.80;;
16928;SDS011;8581;47.334;11.190;2022-08-19T08:08:22;1.70;;;1.60;;
16928;SDS011;8581;47.334;11.190;2022-08-19T08:10:59;2.05;;;1.50;;
16928;SDS011;8581;47.334;11.190;2022-08-19T08:13:31;2.00;;;1.50;;
16928;SDS011;8581;47.334;11.190;2022-08-19T08:16:02;1.50;;;1.40;;
16928;SDS011;8581;47.334;11.190;2022-08-19T08:18:34;1.20;;;1.10;;
16928;SDS011;8581;47.334;11.190;2022-08-19T08:21:05;1.80;;;1.17;;
16928;SDS011;8581;47.334;11.190;2022-08-19T08:23:37;1.15;;;1.02;;
16928;SDS011;8581;47.334;11.190;2022-08-19T08:26:09;0.90;;;0.90;;
16928;SDS011;8581;47.334;11.190;2022-08-19T08:28:41;1.05;;;0.90;;
16928;SDS011;8581;47.334;11.190;2022-08-19T08:31:12;2.65;;;0.85;;
16928;SDS011;8581;47.334;11.190;2022-08-19T08:33:44;0.93;;;0.90;;
16928;SDS011;8581;47.334;11.190;2022-08-19T08:36:16;1.60;;;0.80;;
16928;SDS011;8581;47.334;11.190;2022-08-19T08:38:47;0.90;;;0.90;;
16928;SDS011;8581;47.334;11.190;2022-08-19T08:41:22;0.80;;;0.80;;
16928;SDS011;8581;47.334;11.190;2022-08-19T08:43:52;0.85;;;0.78;;
16928;SDS011;8581;47.334;11.190;2022-08-19T08:46:26;0.80;;;0.80;;
16928;SDS011;8581;47.334;11.190;2022-08-19T08:48:59;0.88;;;0.88;;
16928;SDS011;8581;47.334;11.190;2022-08-19T08:51:39;0.82;;;0.82;;
16928;SDS011;8581;47.334;11.190;2022-08-19T08:54:12;0.90;;;0.90;;
16928;SDS011;8581;47.334;11.190;2022-08-19T08:56:43;1.30;;;0.80;;
16928;SDS011;8581;47.334;11.190;2022-08-19T08:59:21;0.72;;;0.72;;
16928;SDS011;8581;47.334;11.190;2022-08-19T09:01:50;0.93;;;0.70;;
16928;SDS011;8581;47.334;11.190;2022-08-19T09:04:22;0.65;;;0.65;;
16928;SDS011;8581;47.334;11.190;2022-08-19T09:09:49;0.70;;;0.70;;
16928;SDS011;8581;47.334;11.190;2022-08-19T09:15:14;0.70;;;0.70;;
16928;SDS011;8581;47.334;11.190;2022-08-19T09:17:46;1.07;;;0.70;;
16928;SDS011;8581;47.334;11.190;2022-08-19T09:20:18;0.68;;;0.68;;
16928;SDS011;8581;47.334;11.190;2022-08-19T09:22:49;2.77;;;0.70;;
16928;SDS011;8581;47.334;11.190;2022-08-19T09:25:21;0.68;;;0.68;;
16928;SDS011;8581;47.334;11.190;2022-08-19T09:27:52;0.90;;;0.70;;
16928;SDS011;8581;47.334;11.190;2022-08-19T09:30:25;0.70;;;0.70;;
16928;SDS011;8581;47.334;11.190;2022-08-19T09:32:55;0.68;;;0.68;;
16928;SDS011;8581;47.334;11.190;2022-08-19T09:35:28;0.88;;;0.88;;
16928;SDS011;8581;47.334;11.190;2022-08-19T09:37:59;0.70;;;0.70;;
16928;SDS011;8581;47.334;11.190;2022-08-19T09:40:30;0.70;;;0.70;;
16928;SDS011;8581;47.334;11.190;2022-08-19T09:43:02;0.82;;;0.60;;
16928;SDS011;8581;47.334;11.190;2022-08-19T09:45:33;0.80;;;0.80;;
16928;SDS011;8581;47.334;11.190;2022-08-19T09:48:05;1.90;;;0.80;;
16928;SDS011;8581;47.334;11.190;2022-08-19T09:50:37;0.68;;;0.60;;
16928;SDS011;8581;47.334;11.190;2022-08-19T09:53:08;1.55;;;0.60;;
16928;SDS011;8581;47.334;11.190;2022-08-19T09:55:42;0.80;;;0.80;;
16928;SDS011;8581;47.334;11.190;2022-08-19T09:58:13;0.68;;;0.68;;
16928;SDS011;8581;47.334;11.190;2022-08-19T10:00:45;0.60;;;0.60;;
16928;SDS011;8581;47.334;11.190;2022-08-19T10:03:16;0.88;;;0.70;;
16928;SDS011;8581;47.334;11.190;2022-08-19T10:05:48;0.70;;;0.70;;
16928;SDS011;8581;47.334;11.190;2022-08-19T10:08:21;0.62;;;0.62;;
16928;SDS011;8581;47.334;11.190;2022-08-19T10:10:51;1.98;;;0.80;;
16928;SDS011;8581;47.334;11.190;2022-08-19T10:13:25;2.08;;;0.90;;
16928;SDS011;8581;47.334;11.190;2022-08-19T10:15:55;0.70;;;0.70;;
16928;SDS011;8581;47.334;11.190;2022-08-19T10:18:26;0.60;;;0.60;;
16928;SDS011;8581;47.334;11.190;2022-08-19T10:21:03;0.60;;;0.60;;
16928;SDS011;8581;47.334;11.190;2022-08-19T10:23:33;0.53;;;0.53;;
16928;SDS011;8581;47.334;11.190;2022-08-19T10:26:06;0.50;;;0.50;;
16928;SDS011;8581;47.334;11.190;2022-08-19T10:28:37;0.47;;;0.47;;
16928;SDS011;8581;47.334;11.190;2022-08-19T10:31:11;0.65;;;0.57;;
16928;SDS011;8581;47.334;11.190;2022-08-19T10:33:42;0.40;;;0.40;;
16928;SDS011;8581;47.334;11.190;2022-08-19T10:36:16;0.57;;;0.50;;
16928;SDS011;8581;47.334;11.190;2022-08-19T10:38:48;0.50;;;0.50;;
16928;SDS011;8581;47.334;11.190;2022-08-19T10:41:20;0.65;;;0.65;;
16928;SDS011;8581;47.334;11.190;2022-08-19T10:43:50;1.00;;;0.57;;
16928;SDS011;8581;47.334;11.190;2022-08-19T10:46:22;0.60;;;0.60;;
16928;SDS011;8581;47.334;11.190;2022-08-19T10:48:53;0.57;;;0.57;;
16928;SDS011;8581;47.334;11.190;2022-08-19T10:51:25;0.60;;;0.60;;
16928;SDS011;8581;47.334;11.190;2022-08-19T10:54:02;1.32;;;1.22;;
16928;SDS011;8581;47.334;11.190;2022-08-19T10:56:33;2.58;;;1.60;;
16928;SDS011;8581;47.334;11.190;2022-08-19T10:59:11;2.50;;;1.30;;
16928;SDS011;8581;47.334;11.190;2022-08-19T11:01:43;1.52;;;1.40;;
16928;SDS011;8581;47.334;11.190;2022-08-19T11:04:14;1.30;;;1.20;;
16928;SDS011;8581;47.334;11.190;2022-08-19T11:06:46;1.30;;;1.20;;
16928;SDS011;8581;47.334;11.190;2022-08-19T11:09:19;0.98;;;0.93;;
16928;SDS011;8581;47.334;11.190;2022-08-19T11:11:49;0.90;;;0.90;;
16928;SDS011;8581;47.334;11.190;2022-08-19T11:14:20;1.05;;;0.95;;
16928;SDS011;8581;47.334;11.190;2022-08-19T11:16:52;0.90;;;0.90;;
16928;SDS011;8581;47.334;11.190;2022-08-19T11:19:24;1.42;;;1.10;;
16928;SDS011;8581;47.334;11.190;2022-08-19T11:21:56;1.30;;;0.90;;
16928;SDS011;8581;47.334;11.190;2022-08-19T11:24:27;1.22;;;1.12;;
16928;SDS011;8581;47.334;11.190;2022-08-19T11:27:02;1.10;;;0.85;;
16928;SDS011;8581;47.334;11.190;2022-08-19T11:29:32;1.05;;;1.00;;
16928;SDS011;8581;47.334;11.190;2022-08-19T11:32:05;1.10;;;1.00;;
16928;SDS011;8581;47.334;11.190;2022-08-19T11:34:36;2.47;;;1.10;;
16928;SDS011;8581;47.334;11.190;2022-08-19T11:37:07;1.12;;;0.80;;
16928;SDS011;8581;47.334;11.190;2022-08-19T11:39:39;1.00;;;0.90;;
16928;SDS011;8581;47.334;11.190;2022-08-19T11:42:10;0.80;;;0.80;;
16928;SDS011;8581;47.334;11.190;2022-08-19T11:44:48;0.82;;;0.80;;
16928;SDS011;8581;47.334;11.190;2022-08-19T11:47:19;1.00;;;0.82;;
16928;SDS011;8581;47.334;11.190;2022-08-19T11:49:51;1.27;;;0.90;;
16928;SDS011;8581;47.334;11.190;2022-08-19T11:52:23;0.95;;;0.80;;
16928;SDS011;8581;47.334;11.190;2022-08-19T11:54:54;0.88;;;0.72;;
16928;SDS011;8581;47.334;11.190;2022-08-19T11:57:26;0.72;;;0.72;;
16928;SDS011;8581;47.334;11.190;2022-08-19T11:59:57;3.60;;;1.00;;
16928;SDS011;8581;47.334;11.190;2022-08-19T12:02:29;1.22;;;0.88;;
16928;SDS011;8581;47.334;11.190;2022-08-19T12:05:00;1.02;;;0.80;;
16928;SDS011;8581;47.334;11.190;2022-08-19T12:07:33;1.05;;;0.72;;
16928;SDS011;8581;47.334;11.190;2022-08-19T12:10:05;1.27;;;0.78;;
16928;SDS011;8581;47.334;11.190;2022-08-19T12:12:36;0.98;;;0.80;;
16928;SDS011;8581;47.334;11.190;2022-08-19T12:15:09;0.82;;;0.68;;
16928;SDS011;8581;47.334;11.190;2022-08-19T12:17:41;0.50;;;0.50;;
16928;SDS011;8581;47.334;11.190;2022-08-19T12:20:13;2.25;;;0.70;;
16928;SDS011;8581;47.334;11.190;2022-08-19T12:22:44;0.60;;;0.60;;
16928;SDS011;8581;47.334;11.190;2022-08-19T12:25:15;1.07;;;0.60;;
16928;SDS011;8581;47.334;11.190;2022-08-19T12:27:47;0.57;;;0.50;;
16928;SDS011;8581;47.334;11.190;2022-08-19T12:30:19;1.57;;;0.68;;
16928;SDS011;8581;47.334;11.190;2022-08-19T12:32:50;0.45;;;0.45;;
16928;SDS011;8581;47.334;11.190;2022-08-19T12:35:22;0.60;;;0.60;;
16928;SDS011;8581;47.334;11.190;2022-08-19T12:37:54;0.90;;;0.50;;
16928;SDS011;8581;47.334;11.190;2022-08-19T12:40:25;1.20;;;0.62;;
16928;SDS011;8581;47.334;11.190;2022-08-19T12:42:57;0.50;;;0.50;;
16928;SDS011;8581;47.334;11.190;2022-08-19T12:45:28;1.12;;;0.30;;
16928;SDS011;8581;47.334;11.190;2022-08-19T12:48:00;0.45;;;0.45;;
16928;SDS011;8581;47.334;11.190;2022-08-19T12:50:32;1.17;;;0.55;;
16928;SDS011;8581;47.334;11.190;2022-08-19T12:53:03;0.60;;;0.60;;
16928;SDS011;8581;47.334;11.190;2022-08-19T12:55:35;0.53;;;0.53;;
16928;SDS011;8581;47.334;11.190;2022-08-19T12:58:06;0.70;;;0.50;;
16928;SDS011;8581;47.334;11.190;2022-08-19T13:00:39;1.27;;;0.50;;
16928;SDS011;8581;47.334;11.190;2022-08-19T13:03:10;0.40;;;0.40;;
16928;SDS011;8581;47.334;11.190;2022-08-19T13:05:41;1.12;;;0.50;;
16928;SDS011;8581;47.334;11.190;2022-08-19T13:08:13;0.50;;;0.40;;
16928;SDS011;8581;47.334;11.190;2022-08-19T13:10:44;0.50;;;0.40;;
16928;SDS011;8581;47.334;11.190;2022-08-19T13:13:16;0.85;;;0.57;;
16928;SDS011;8581;47.334;11.190;2022-08-19T13:15:48;1.05;;;0.50;;
16928;SDS011;8581;47.334;11.190;2022-08-19T13:18:19;0.50;;;0.50;;
16928;SDS011;8581;47.334;11.190;2022-08-19T13:20:51;0.50;;;0.50;;
16928;SDS011;8581;47.334;11.190;2022-08-19T13:23:23;0.98;;;0.50;;
16928;SDS011;8581;47.334;11.190;2022-08-19T13:25:56;1.57;;;0.60;;
16928;SDS011;8581;47.334;11.190;2022-08-19T13:28:27;0.40;;;0.40;;
16928;SDS011;8581;47.334;11.190;2022-08-19T13:30:58;0.50;;;0.50;;
16928;SDS011;8581;47.334;11.190;2022-08-19T13:33:36;0.72;;;0.50;;
16928;SDS011;8581;47.334;11.190;2022-08-19T13:36:07;2.00;;;0.60;;
16928;SDS011;8581;47.334;11.190;2022-08-19T13:38:39;0.50;;;0.50;;
16928;SDS011;8581;47.334;11.190;2022-08-19T13:41:11;0.40;;;0.40;;
16928;SDS011;8581;47.334;11.190;2022-08-19T13:43:42;0.70;;;0.70;;
16928;SDS011;8581;47.334;11.190;2022-08-19T13:46:14;1.00;;;0.62;;
16928;SDS011;8581;47.334;11.190;2022-08-19T13:48:46;0.75;;;0.60;;
16928;SDS011;8581;47.334;11.190;2022-08-19T13:51:17;0.40;;;0.40;;
16928;SDS011;8581;47.334;11.190;2022-08-19T13:53:49;0.40;;;0.40;;
16928;SDS011;8581;47.334;11.190;2022-08-19T13:56:20;0.95;;;0.80;;
16928;SDS011;8581;47.334;11.190;2022-08-19T13:58:52;1.10;;;0.90;;
16928;SDS011;8581;47.334;11.190;2022-08-19T14:01:24;0.85;;;0.80;;
16928;SDS011;8581;47.334;11.190;2022-08-19T14:03:55;1.57;;;0.88;;
16928;SDS011;8581;47.334;11.190;2022-08-19T14:06:27;0.50;;;0.50;;
16928;SDS011;8581;47.334;11.190;2022-08-19T14:08:58;0.70;;;0.65;;
16928;SDS011;8581;47.334;11.190;2022-08-19T14:11:30;1.22;;;0.90;;
16928;SDS011;8581;47.334;11.190;2022-08-19T14:14:02;0.70;;;0.70;;
16928;SDS011;8581;47.334;11.190;2022-08-19T14:16:33;0.80;;;0.80;;
16928;SDS011;8581;47.334;11.190;2022-08-19T14:19:05;0.93;;;0.70;;
16928;SDS011;8581;47.334;11.190;2022-08-19T14:21:36;1.05;;;0.80;;
16928;SDS011;8581;47.334;11.190;2022-08-19T14:24:08;0.60;;;0.60;;
16928;SDS011;8581;47.334;11.190;2022-08-19T14:26:40;0.60;;;0.60;;
16928;SDS011;8581;47.334;11.190;2022-08-19T14:29:11;0.90;;;0.70;;
16928;SDS011;8581;47.334;11.190;2022-08-19T14:31:43;1.25;;;0.70;;
16928;SDS011;8581;47.334;11.190;2022-08-19T14:34:14;2.02;;;0.60;;
16928;SDS011;8581;47.334;11.190;2022-08-19T14:36:46;1.30;;;0.80;;
16928;SDS011;8581;47.334;11.190;2022-08-19T14:39:18;1.30;;;0.80;;
16928;SDS011;8581;47.334;11.190;2022-08-19T14:41:49;0.60;;;0.60;;
16928;SDS011;8581;47.334;11.190;2022-08-19T14:44:21;1.22;;;0.75;;
16928;SDS011;8581;47.334;11.190;2022-08-19T14:46:52;1.75;;;0.70;;
16928;SDS011;8581;47.334;11.190;2022-08-19T14:49:24;1.67;;;0.62;;
16928;SDS011;8581;47.334;11.190;2022-08-19T14:51:56;1.12;;;0.72;;
16928;SDS011;8581;47.334;11.190;2022-08-19T14:54:27;0.78;;;0.60;;
16928;SDS011;8581;47.334;11.190;2022-08-19T14:56:59;0.60;;;0.60;;
16928;SDS011;8581;47.334;11.190;2022-08-19T14:59:31;1.07;;;0.70;;
16928;SDS011;8581;47.334;11.190;2022-08-19T15:02:02;0.68;;;0.65;;
16928;SDS011;8581;47.334;11.190;2022-08-19T15:04:34;2.55;;;0.85;;
16928;SDS011;8581;47.334;11.190;2022-08-19T15:07:06;1.85;;;0.80;;
16928;SDS011;8581;47.334;11.190;2022-08-19T15:09:37;1.95;;;0.80;;
16928;SDS011;8581;47.334;11.190;2022-08-19T15:12:09;1.25;;;0.78;;
16928;SDS011;8581;47.334;11.190;2022-08-19T15:14:40;0.57;;;0.50;;
16928;SDS011;8581;47.334;11.190;2022-08-19T15:17:12;0.82;;;0.70;;
16928;SDS011;8581;47.334;11.190;2022-08-19T15:19:44;1.30;;;0.60;;
16928;SDS011;8581;47.334;11.190;2022-08-19T15:22:15;1.60;;;0.55;;